Time;durP1;ratioP1;P1;durP2;ratioP2;P2;SDS_P1;SDS_P2;PMS_P1;PMS_P2;Temp;Humidity;BMP_temperature;BMP_pressure;BME280_temperature;BME280_humidity;BME280_pressure;Samples;Min_cycle;Max_cycle;Signal;HPM_P1;HPM_P2
2023/06/14 00:02:02;;;;;;;3.27;3.07;;;24.50;86.10;;;;;;5076427;28;20436;-89
2023/06/14 00:04:29;;;;;;;3.80;3.50;;;24.60;86.20;;;;;;5076319;28;20485;-88
2023/06/14 00:06:57;;;;;;;4.03;3.60;;;24.40;85.80;;;;;;5076136;28;20600;-88
2023/06/14 00:09:25;;;;;;;3.90;3.60;;;24.50;85.90;;;;;;5076271;28;20463;-88
2023/06/14 00:11:52;;;;;;;3.73;3.47;;;24.50;86.10;;;;;;5076500;28;21017;-87
2023/06/14 00:14:19;;;;;;;3.40;3.20;;;24.50;86.20;;;;;;5076946;28;20440;-90
2023/06/14 00:16:46;;;;;;;4.10;3.80;;;24.40;86.20;;;;;;5076385;28;20444;-91
2023/06/14 00:19:13;;;;;;;3.93;3.70;;;24.60;86.40;;;;;;5076135;28;20445;-87
2023/06/14 00:21:41;;;;;;;3.80;3.50;;;24.40;86.10;;;;;;5076128;28;20492;-88
2023/06/14 00:24:08;;;;;;;3.50;3.20;;;24.40;86.50;;;;;;5076049;28;20802;-88
2023/06/14 00:26:37;;;;;;;4.07;3.77;;;24.50;86.30;;;;;;5075996;28;20441;-92
2023/06/14 00:29:03;;;;;;;3.40;3.10;;;24.50;86.30;;;;;;5076696;28;20530;-91
2023/06/14 00:31:30;;;;;;;3.73;3.50;;;24.40;86.60;;;;;;5075976;28;20441;-91
2023/06/14 00:33:57;;;;;;;3.60;3.30;;;24.50;86.50;;;;;;5075921;28;20447;-88
2023/06/14 00:36:24;;;;;;;3.60;3.40;;;24.40;86.60;;;;;;5076062;28;20467;-87
2023/06/14 00:38:51;;;;;;;3.53;3.20;;;24.50;86.70;;;;;;5075789;28;20939;-87
2023/06/14 00:41:18;;;;;;;3.63;3.33;;;24.40;86.50;;;;;;5076004;28;20446;-87
2023/06/14 00:43:46;;;;;;;3.53;3.33;;;24.40;86.60;;;;;;5075739;28;20994;-91
2023/06/14 00:46:13;;;;;;;3.93;3.63;;;24.40;86.70;;;;;;5076276;28;20456;-91
2023/06/14 00:48:40;;;;;;;3.70;3.43;;;24.40;86.60;;;;;;5075604;28;20946;-92
2023/06/14 00:51:07;;;;;;;3.37;3.07;;;24.50;86.80;;;;;;5075735;28;20441;-92
2023/06/14 00:53:35;;;;;;;3.90;3.37;;;24.60;86.70;;;;;;5075452;28;20870;-87
2023/06/14 00:56:02;;;;;;;3.60;3.30;;;24.40;87.10;;;;;;5075754;28;20814;-88
2023/06/14 00:58:29;;;;;;;3.53;3.33;;;24.40;87.10;;;;;;5075728;28;20440;-87
2023/06/14 01:00:57;;;;;;;3.00;2.80;;;24.50;86.80;;;;;;5075789;28;20462;-92
2023/06/14 01:03:25;;;;;;;2.77;2.57;;;24.40;87.50;;;;;;5076041;28;20476;-87
2023/06/14 01:06:02;;;;;;;3.20;3.00;;;24.40;87.40;;;;;;5074883;28;20512;-90
2023/06/14 01:08:38;;;;;;;3.33;3.13;;;24.40;87.60;;;;;;5075334;28;20446;-87
2023/06/14 01:11:13;;;;;;;3.63;3.40;;;24.40;87.60;;;;;;5075345;28;20497;-91
2023/06/14 01:13:43;;;;;;;3.23;3.00;;;24.40;87.60;;;;;;5075910;28;20458;-88
2023/06/14 01:16:12;;;;;;;4.30;4.00;;;24.40;88.00;;;;;;5075041;28;20470;-90
2023/06/14 01:18:41;;;;;;;4.03;3.73;;;24.40;88.20;;;;;;5075045;28;20447;-88
2023/06/14 01:21:29;;;;;;;2.90;2.70;;;24.40;88.30;;;;;;5075242;28;20438;-88
2023/06/14 01:23:58;;;;;;;3.20;3.00;;;24.40;88.30;;;;;;5032889;28;20489;-88
2023/06/14 01:26:25;;;;;;;3.23;2.93;;;24.40;88.30;;;;;;5032796;28;20475;-91
2023/06/14 01:28:58;;;;;;;3.40;3.10;;;24.40;88.80;;;;;;5033750;28;20873;-91
2023/06/14 01:31:27;;;;;;;3.50;3.20;;;24.40;89.30;;;;;;5033074;28;20485;-92
2023/06/14 01:33:54;;;;;;;3.17;2.87;;;24.40;89.00;;;;;;5032789;28;20542;-91
2023/06/14 01:36:21;;;;;;;4.23;3.80;;;24.40;89.00;;;;;;5032526;28;20467;-88
2023/06/14 01:38:49;;;;;;;3.30;3.10;;;24.40;89.00;;;;;;5032633;28;20445;-88
2023/06/14 01:41:19;;;;;;;3.00;2.80;;;24.40;89.10;;;;;;5039786;28;20966;-88
2023/06/14 01:43:48;;;;;;;2.80;2.60;;;24.40;89.40;;;;;;5074788;28;20496;-88
2023/06/14 01:46:16;;;;;;;4.00;3.30;;;24.40;88.90;;;;;;5075774;28;20793;-87
2023/06/14 01:48:43;;;;;;;2.70;2.50;;;24.40;89.40;;;;;;5074452;28;20482;-92
2023/06/14 01:51:10;;;;;;;3.10;2.90;;;24.40;89.50;;;;;;5074570;28;20444;-87
2023/06/14 01:53:37;;;;;;;3.10;2.80;;;24.40;90.20;;;;;;5074522;28;20446;-88
2023/06/14 01:56:03;;;;;;;3.40;3.10;;;24.40;89.20;;;;;;5074881;28;20498;-87
2023/06/14 01:58:32;;;;;;;2.90;2.70;;;24.40;89.30;;;;;;5075191;28;20474;-87
2023/06/14 02:01:00;;;;;;;3.53;3.20;;;24.40;89.50;;;;;;5074477;28;20504;-88
2023/06/14 02:03:27;;;;;;;3.00;2.80;;;24.40;89.10;;;;;;5074170;28;20434;-87
2023/06/14 02:05:55;;;;;;;2.90;2.60;;;24.40;89.50;;;;;;5074315;28;20572;-88
2023/06/14 02:08:22;;;;;;;2.73;2.53;;;24.50;89.30;;;;;;5073688;28;20447;-87
2023/06/14 02:10:49;;;;;;;3.37;3.13;;;24.40;89.10;;;;;;5074264;28;20447;-91
2023/06/14 02:13:15;;;;;;;3.40;3.10;;;24.40;88.50;;;;;;5074316;28;20500;-87
2023/06/14 02:15:45;;;;;;;3.20;3.00;;;24.40;88.80;;;;;;5074273;28;20859;-92
2023/06/14 02:18:12;;;;;;;4.83;2.93;;;24.40;88.30;;;;;;5074086;28;20449;-92
2023/06/14 02:20:39;;;;;;;3.07;2.87;;;24.40;88.10;;;;;;5088447;28;20435;-89
2023/06/14 02:23:07;;;;;;;2.57;2.37;;;24.40;88.40;;;;;;5091249;28;20437;-88
2023/06/14 02:25:34;;;;;;;2.93;2.73;;;24.40;88.70;;;;;;5088838;28;20485;-87
2023/06/14 02:28:01;;;;;;;2.80;2.60;;;24.30;88.90;;;;;;5074591;28;20538;-88
2023/06/14 02:30:28;;;;;;;2.47;2.27;;;24.50;88.40;;;;;;5074138;28;20523;-91
2023/06/14 02:32:56;;;;;;;3.03;2.83;;;24.30;88.50;;;;;;5073695;28;20441;-88
2023/06/14 02:35:26;;;;;;;2.77;2.57;;;24.30;88.30;;;;;;5073689;28;20545;-91
2023/06/14 02:37:52;;;;;;;2.90;2.70;;;24.30;88.50;;;;;;5073857;28;20798;-87
2023/06/14 02:40:19;;;;;;;2.80;2.60;;;24.30;88.40;;;;;;5073638;28;20438;-87
2023/06/14 02:42:46;;;;;;;2.50;2.30;;;24.30;88.40;;;;;;5073776;28;20438;-89
2023/06/14 02:45:13;;;;;;;2.73;2.47;;;24.30;88.60;;;;;;5073639;28;20584;-90
2023/06/14 02:47:40;;;;;;;2.83;2.63;;;24.30;88.30;;;;;;5073863;28;20443;-89
2023/06/14 02:50:09;;;;;;;2.70;2.50;;;24.30;89.20;;;;;;5073793;28;20449;-92
2023/06/14 02:52:36;;;;;;;2.77;2.57;;;24.30;88.20;;;;;;5073476;28;20436;-92
2023/06/14 02:55:03;;;;;;;2.63;2.43;;;24.40;87.70;;;;;;5073685;28;20448;-91
2023/06/14 02:57:30;;;;;;;3.10;2.90;;;24.30;88.20;;;;;;5073738;28;20439;-87
2023/06/14 02:59:57;;;;;;;2.50;2.30;;;24.30;88.00;;;;;;5073818;28;20437;-88
2023/06/14 03:02:24;;;;;;;2.30;2.13;;;24.30;88.30;;;;;;5073252;28;20531;-88
2023/06/14 03:04:51;;;;;;;2.67;2.47;;;24.30;88.20;;;;;;5073588;28;20494;-88
2023/06/14 03:07:19;;;;;;;2.60;2.40;;;24.30;87.80;;;;;;5073519;28;20551;-88
2023/06/14 03:09:46;;;;;;;2.60;2.40;;;24.30;87.00;;;;;;5073194;28;20481;-88
2023/06/14 03:12:14;;;;;;;2.67;2.47;;;24.30;86.70;;;;;;5073486;28;20482;-87
2023/06/14 03:14:41;;;;;;;2.40;2.20;;;24.30;86.70;;;;;;5073730;28;20449;-88
2023/06/14 03:17:10;;;;;;;2.60;2.40;;;24.30;85.90;;;;;;5073446;28;20445;-87
2023/06/14 03:19:37;;;;;;;2.43;2.33;;;24.30;85.50;;;;;;5073499;28;20858;-91
2023/06/14 03:22:04;;;;;;;2.50;2.30;;;24.50;85.70;;;;;;5076319;28;20443;-91
2023/06/14 03:24:36;;;;;;;2.50;2.30;;;24.30;85.40;;;;;;5077578;28;20524;-88
2023/06/14 03:27:03;;;;;;;3.20;2.47;;;24.40;84.90;;;;;;5077091;28;20453;-87
2023/06/14 03:29:30;;;;;;;2.57;2.37;;;24.30;84.50;;;;;;5077336;28;20448;-91
2023/06/14 03:32:01;;;;;;;2.67;2.47;;;24.30;84.50;;;;;;5077725;28;20445;-88
2023/06/14 03:34:28;;;;;;;2.47;2.30;;;24.30;84.20;;;;;;5077376;28;20454;-88
2023/06/14 03:36:55;;;;;;;2.33;2.13;;;24.30;84.20;;;;;;5077108;28;20459;-91
2023/06/14 03:39:22;;;;;;;3.40;2.20;;;24.30;84.20;;;;;;5077437;28;20440;-88
2023/06/14 03:41:50;;;;;;;4.17;2.50;;;24.30;83.90;;;;;;5076895;28;20440;-88
2023/06/14 03:44:19;;;;;;;2.40;2.30;;;24.30;83.80;;;;;;5076853;28;20991;-88
2023/06/14 03:46:50;;;;;;;2.50;2.30;;;24.30;83.80;;;;;;5076981;28;20463;-87
2023/06/14 03:50:00;;;;;;;2.47;2.27;;;24.30;83.80;;;;;;5057445;28;20849;-92
2023/06/14 03:52:27;;;;;;;2.10;2.00;;;24.30;83.50;;;;;;5086225;28;20526;-88
2023/06/14 03:54:54;;;;;;;2.03;1.77;;;24.20;83.50;;;;;;5097725;28;20436;-91
2023/06/14 03:57:24;;;;;;;2.40;2.27;;;24.30;83.50;;;;;;5098417;28;20441;-87
2023/06/14 03:59:51;;;;;;;3.00;2.70;;;24.20;83.40;;;;;;5096675;28;20528;-89
2023/06/14 04:02:18;;;;;;;2.40;2.20;;;24.20;83.40;;;;;;5097311;28;20534;-92
2023/06/14 04:04:45;;;;;;;2.50;2.30;;;24.20;83.20;;;;;;5096641;28;20483;-88
2023/06/14 04:07:12;;;;;;;2.70;2.50;;;24.20;83.30;;;;;;5096958;28;20549;-91
2023/06/14 04:09:39;;;;;;;2.50;2.30;;;24.20;83.00;;;;;;5098225;28;20429;-85
2023/06/14 04:12:08;;;;;;;2.47;2.27;;;24.20;83.10;;;;;;5097198;28;20463;-91
2023/06/14 04:14:36;;;;;;;2.50;2.40;;;24.30;83.50;;;;;;5096279;28;20446;-87
2023/06/14 04:17:03;;;;;;;2.30;2.10;;;24.20;83.20;;;;;;5096254;28;20534;-88
2023/06/14 04:19:30;;;;;;;2.47;2.27;;;24.20;83.10;;;;;;5096603;28;20455;-87
2023/06/14 04:21:59;;;;;;;2.53;2.33;;;24.20;82.80;;;;;;5098914;28;20928;-87
2023/06/14 04:24:28;;;;;;;2.17;2.07;;;24.40;83.10;;;;;;5099183;28;20432;-87
2023/06/14 04:26:58;;;;;;;2.20;2.00;;;24.40;82.90;;;;;;5091185;28;20445;-92
2023/06/14 04:29:26;;;;;;;2.00;1.90;;;24.20;83.00;;;;;;5079451;28;20445;-88
2023/06/14 04:31:59;;;;;;;2.07;1.97;;;24.20;83.10;;;;;;5079442;28;20438;-89
2023/06/14 04:34:29;;;;;;;2.20;2.00;;;24.30;83.10;;;;;;5078041;28;20434;-88
2023/06/14 04:36:57;;;;;;;3.00;2.37;;;24.20;82.80;;;;;;5076685;28;20565;-87
2023/06/14 04:39:25;;;;;;;2.23;2.10;;;24.20;82.80;;;;;;5077392;28;20430;-87
2023/06/14 04:41:56;;;;;;;2.33;2.00;;;24.20;82.60;;;;;;5076860;28;20490;-88
2023/06/14 04:44:31;;;;;;;1.90;1.80;;;24.20;82.80;;;;;;5076003;28;20474;-87
2023/06/14 04:47:00;;;;;;;2.63;2.37;;;24.20;82.80;;;;;;5057144;28;20864;-87
2023/06/14 04:49:27;;;;;;;2.17;1.97;;;24.30;82.90;;;;;;5070360;28;20504;-86
2023/06/14 04:51:57;;;;;;;1.90;1.60;;;24.40;82.90;;;;;;5076516;28;20445;-89
2023/06/14 04:54:25;;;;;;;2.50;2.30;;;24.20;82.90;;;;;;5076753;28;20472;-88
2023/06/14 04:56:53;;;;;;;2.10;2.00;;;24.20;82.80;;;;;;5077197;28;20463;-87
2023/06/14 04:59:20;;;;;;;2.10;1.90;;;24.30;83.30;;;;;;5076177;28;20444;-87
2023/06/14 05:01:48;;;;;;;2.10;1.90;;;24.20;83.80;;;;;;5075811;28;20449;-88
2023/06/14 05:04:16;;;;;;;2.30;2.13;;;24.20;82.90;;;;;;5078682;28;20439;-92
2023/06/14 05:06:44;;;;;;;1.97;1.87;;;24.30;83.30;;;;;;5075906;28;20500;-92
2023/06/14 05:09:11;;;;;;;1.90;1.80;;;24.20;83.20;;;;;;5077150;28;20527;-88
2023/06/14 05:11:38;;;;;;;2.33;2.13;;;24.30;83.30;;;;;;5087591;28;20532;-87
2023/06/14 05:14:06;;;;;;;2.33;2.13;;;24.20;83.60;;;;;;5077588;28;20448;-87
2023/06/14 05:16:32;;;;;;;2.03;1.93;;;24.20;83.30;;;;;;5076241;28;20466;-88
2023/06/14 05:18:59;;;;;;;2.20;2.10;;;24.20;83.10;;;;;;5075085;28;20431;-87
2023/06/14 05:21:27;;;;;;;2.10;2.00;;;24.20;83.70;;;;;;5076304;28;21017;-92
2023/06/14 05:23:55;;;;;;;1.90;1.80;;;24.20;83.00;;;;;;5076536;28;20520;-92
2023/06/14 05:26:23;;;;;;;2.00;1.90;;;24.20;83.30;;;;;;5075971;28;20509;-90
2023/06/14 05:28:52;;;;;;;2.03;1.93;;;24.20;83.00;;;;;;5076549;28;20453;-88
2023/06/14 05:31:19;;;;;;;2.20;2.00;;;24.30;83.30;;;;;;5076252;28;20442;-91
2023/06/14 05:33:46;;;;;;;2.40;2.20;;;24.20;83.20;;;;;;5077206;28;20528;-90
2023/06/14 05:36:13;;;;;;;1.80;1.70;;;24.20;83.30;;;;;;5077042;28;20472;-92
2023/06/14 05:38:41;;;;;;;3.60;2.67;;;24.30;83.90;;;;;;5077072;28;20441;-85
2023/06/14 05:41:08;;;;;;;4.03;2.30;;;24.30;83.60;;;;;;5075603;28;20779;-88
2023/06/14 05:43:35;;;;;;;3.00;2.40;;;24.30;81.50;;;;;;5075645;28;20437;-89
2023/06/14 05:46:02;;;;;;;2.40;2.20;;;24.30;80.10;;;;;;5076751;22;20567;-88
2023/06/14 05:48:32;;;;;;;4.27;2.53;;;24.20;79.60;;;;;;5050943;28;20441;-88
2023/06/14 05:51:00;;;;;;;6.10;2.80;;;24.10;79.60;;;;;;5046927;28;20435;-88
2023/06/14 05:53:27;;;;;;;6.27;2.80;;;24.00;79.10;;;;;;5048263;28;20438;-89
2023/06/14 05:56:01;;;;;;;2.30;2.20;;;24.00;79.40;;;;;;5037695;28;20823;-92
2023/06/14 05:58:43;;;;;;;3.60;2.53;;;23.90;79.60;;;;;;5025150;28;20530;-92
2023/06/14 06:01:11;;;;;;;6.20;2.10;;;23.90;79.60;;;;;;5020782;28;20518;-96
2023/06/14 06:03:38;;;;;;;7.60;2.80;;;23.80;79.20;;;;;;5017806;28;20453;-96
2023/06/14 06:06:05;;;;;;;4.17;2.80;;;23.80;79.50;;;;;;5021988;28;20554;-96
2023/06/14 06:08:37;;;;;;;6.90;2.33;;;23.70;79.50;;;;;;5013476;28;20439;-92
2023/06/14 06:13:46;;;;;;;3.63;2.77;;;23.70;80.00;;;;;;4989223;28;20482;-92
2023/06/14 06:16:13;;;;;;;3.00;2.30;;;23.70;80.20;;;;;;5025409;28;20479;-91
2023/06/14 06:18:45;;;;;;;7.37;3.07;;;23.70;80.50;;;;;;5030376;28;21347;-93
2023/06/14 06:21:13;;;;;;;3.80;2.13;;;23.70;80.30;;;;;;5015746;28;20411;-91
2023/06/14 06:23:40;;;;;;;3.93;2.30;;;23.70;80.40;;;;;;5029954;28;20455;-91
2023/06/14 06:26:13;;;;;;;3.20;2.40;;;23.70;80.90;;;;;;5031996;28;20498;-92
2023/06/14 06:28:49;;;;;;;4.43;2.30;;;23.70;80.10;;;;;;5074105;23;20490;-91
2023/06/14 06:31:27;;;;;;;2.60;2.40;;;23.70;80.70;;;;;;5090960;28;20452;-94
2023/06/14 06:34:12;;;;;;;3.20;2.37;;;23.70;80.70;;;;;;5090012;23;20459;-92
2023/06/14 06:36:39;;;;;;;2.90;2.43;;;23.70;81.00;;;;;;5077653;28;20454;-91
2023/06/14 06:39:09;;;;;;;4.33;2.50;;;23.70;81.20;;;;;;5078284;28;20429;-93
2023/06/14 06:41:39;;;;;;;5.00;2.87;;;23.90;81.10;;;;;;5078449;28;20469;-90
2023/06/14 06:44:06;;;;;;;2.50;2.00;;;23.70;81.00;;;;;;5058091;28;20448;-91
2023/06/14 06:46:33;;;;;;;6.60;2.90;;;23.80;81.30;;;;;;5053246;28;21113;-82
2023/06/14 06:49:00;;;;;;;6.90;2.67;;;23.80;81.10;;;;;;5053460;28;20839;-83
2023/06/14 06:51:27;;;;;;;2.47;2.27;;;23.80;81.40;;;;;;5051528;28;20443;-83
2023/06/14 06:53:54;;;;;;;5.73;2.63;;;23.90;81.30;;;;;;5055431;28;20434;-88
2023/06/14 06:56:22;;;;;;;4.23;2.57;;;23.90;81.30;;;;;;5054255;28;20441;-89
2023/06/14 06:58:51;;;;;;;5.50;2.37;;;23.90;81.60;;;;;;5052518;28;20884;-89
2023/06/14 07:01:18;;;;;;;3.00;2.03;;;23.90;81.90;;;;;;5052552;28;20541;-90
2023/06/14 07:03:45;;;;;;;4.57;2.20;;;23.90;82.40;;;;;;5052121;28;20450;-90
2023/06/14 07:06:12;;;;;;;6.33;2.60;;;23.90;83.30;;;;;;5052113;28;20529;-89
2023/06/14 07:08:39;;;;;;;6.13;2.83;;;23.90;83.70;;;;;;5052293;28;20485;-90
2023/06/14 07:11:07;;;;;;;3.60;2.07;;;23.90;84.50;;;;;;5051918;28;20452;-91
2023/06/14 07:13:33;;;;;;;2.33;1.80;;;24.00;84.20;;;;;;5052087;28;20449;-90
2023/06/14 07:16:02;;;;;;;3.60;2.77;;;24.00;84.70;;;;;;5052153;28;20926;-91
2023/06/14 07:18:29;;;;;;;4.13;2.33;;;24.00;84.90;;;;;;5051982;28;20439;-91
2023/06/14 07:20:57;;;;;;;6.40;2.20;;;24.00;84.70;;;;;;5052723;28;20992;-90
2023/06/14 07:23:23;;;;;;;6.80;2.40;;;24.00;85.10;;;;;;5052173;28;20478;-90
2023/06/14 07:25:50;;;;;;;2.10;1.90;;;24.00;85.10;;;;;;5052537;28;20565;-90
2023/06/14 07:28:17;;;;;;;6.60;2.00;;;24.10;85.80;;;;;;5053079;28;20457;-91
2023/06/14 07:30:44;;;;;;;2.40;2.20;;;24.10;85.90;;;;;;5062011;28;20451;-93
2023/06/14 07:33:13;;;;;;;3.40;2.30;;;24.00;85.60;;;;;;5034332;28;20440;-95
2023/06/14 07:35:40;;;;;;;4.30;2.20;;;24.10;85.60;;;;;;5033662;28;21054;-92
2023/06/14 07:38:06;;;;;;;1.90;1.80;;;24.10;85.70;;;;;;5034873;28;20498;-94
2023/06/14 07:40:33;;;;;;;2.60;2.40;;;24.10;86.00;;;;;;5033939;28;20447;-96
2023/06/14 07:43:01;;;;;;;6.10;2.27;;;24.10;85.80;;;;;;5050664;28;20441;-94
2023/06/14 07:45:28;;;;;;;4.90;1.80;;;24.10;85.70;;;;;;5051174;28;20446;-96
2023/06/14 07:47:56;;;;;;;2.40;2.20;;;24.10;86.10;;;;;;5038559;28;20487;-93
2023/06/14 07:50:58;;;;;;;5.97;1.90;;;24.10;86.00;;;;;;5042276;28;20515;-86
2023/06/14 07:53:28;;;;;;;7.33;1.93;;;24.30;86.40;;;;;;5041304;28;20484;-88
2023/06/14 07:59:19;;;;;;;2.37;2.00;;;24.10;86.20;;;;;;5044712;28;20421;-90
2023/06/14 08:01:47;;;;;;;2.17;1.97;;;24.10;86.60;;;;;;5052816;28;20461;-81
2023/06/14 08:04:15;;;;;;;2.20;2.00;;;24.10;86.10;;;;;;5055836;28;20854;-88
2023/06/14 08:06:45;;;;;;;1.93;1.77;;;24.10;86.80;;;;;;5036822;28;20995;-89
2023/06/14 08:09:18;;;;;;;3.33;2.47;;;24.10;86.90;;;;;;5042762;28;20454;-89
2023/06/14 08:11:45;;;;;;;2.80;1.97;;;24.10;87.10;;;;;;5039727;28;20429;-91
2023/06/14 08:14:12;;;;;;;2.37;1.90;;;24.10;87.40;;;;;;5038928;28;20448;-92
2023/06/14 08:16:39;;;;;;;2.23;1.73;;;24.20;87.70;;;;;;5038926;28;20465;-90
2023/06/14 08:19:07;;;;;;;2.37;1.67;;;24.20;87.80;;;;;;5038105;28;20550;-89
2023/06/14 08:21:36;;;;;;;2.53;2.17;;;24.20;87.70;;;;;;5040565;28;20443;-89
2023/06/14 08:24:05;;;;;;;2.30;2.10;;;24.20;87.80;;;;;;5041902;28;20462;-90
2023/06/14 08:26:33;;;;;;;2.07;1.80;;;24.20;88.50;;;;;;5040778;28;20877;-89
2023/06/14 08:29:00;;;;;;;2.30;2.10;;;24.20;88.20;;;;;;5039509;28;20456;-89
2023/06/14 08:31:27;;;;;;;3.60;2.07;;;24.20;88.60;;;;;;5040543;28;20834;-89
2023/06/14 08:33:55;;;;;;;4.70;2.27;;;24.20;88.70;;;;;;5039582;28;20456;-89
2023/06/14 08:36:22;;;;;;;3.50;2.20;;;24.20;88.90;;;;;;5058620;28;20469;-90
2023/06/14 08:38:49;;;;;;;2.33;2.03;;;24.20;89.00;;;;;;5060195;28;20446;-89
2023/06/14 08:41:23;;;;;;;2.30;2.10;;;24.20;89.70;;;;;;5059190;28;20448;-88
2023/06/14 08:43:50;;;;;;;1.90;1.80;;;24.20;89.60;;;;;;5058034;28;20433;-90
2023/06/14 08:46:22;;;;;;;2.40;1.77;;;24.40;89.50;;;;;;5057362;28;20475;-90
2023/06/14 08:48:50;;;;;;;6.13;1.73;;;24.20;89.40;;;;;;5058197;28;20451;-90
2023/06/14 08:51:21;;;;;;;2.20;2.00;;;24.20;89.90;;;;;;5056771;28;20481;-90
2023/06/14 08:53:54;;;;;;;2.23;2.03;;;24.20;90.00;;;;;;5061008;28;20525;-89
2023/06/14 08:56:26;;;;;;;2.43;1.80;;;24.20;90.00;;;;;;5058635;28;20529;-89
2023/06/14 08:58:54;;;;;;;3.70;2.40;;;24.10;90.00;;;;;;5061757;28;20519;-88
2023/06/14 09:01:21;;;;;;;1.90;1.60;;;24.20;90.00;;;;;;5060145;28;20452;-90
2023/06/14 09:03:49;;;;;;;2.43;2.23;;;24.20;90.10;;;;;;5060083;28;20451;-88
2023/06/14 09:06:19;;;;;;;2.00;1.90;;;24.20;90.20;;;;;;5059061;28;20484;-87
2023/06/14 09:08:48;;;;;;;2.20;1.93;;;24.20;90.40;;;;;;5058386;28;20443;-86
2023/06/14 09:11:18;;;;;;;2.40;2.00;;;24.20;90.40;;;;;;5057748;28;20444;-86
2023/06/14 09:13:48;;;;;;;5.87;1.60;;;24.20;90.70;;;;;;5056731;28;20455;-87
2023/06/14 09:16:14;;;;;;;2.40;2.23;;;24.20;90.70;;;;;;5054848;28;20463;-87
2023/06/14 09:18:44;;;;;;;2.00;1.70;;;24.40;90.80;;;;;;5053680;28;20438;-88
2023/06/14 09:21:12;;;;;;;2.47;1.70;;;24.30;90.80;;;;;;5055432;28;20497;-88
2023/06/14 09:23:40;;;;;;;3.60;2.10;;;24.30;90.80;;;;;;5055404;28;20437;-90
2023/06/14 09:26:11;;;;;;;2.37;2.17;;;24.30;90.80;;;;;;5055341;28;20471;-83
2023/06/14 09:28:42;;;;;;;1.60;1.43;;;24.30;91.00;;;;;;5054964;28;20443;-88
2023/06/14 09:31:11;;;;;;;2.07;1.70;;;24.30;90.80;;;;;;5055200;28;20747;-88
2023/06/14 09:33:38;;;;;;;1.77;1.67;;;24.30;90.80;;;;;;5054893;28;20455;-92
2023/06/14 09:36:05;;;;;;;5.10;1.70;;;24.30;91.10;;;;;;5054717;28;20487;-88
2023/06/14 09:38:34;;;;;;;2.13;1.73;;;24.30;90.90;;;;;;5054747;28;20994;-85
2023/06/14 09:41:04;;;;;;;2.17;1.97;;;24.30;90.80;;;;;;5055083;28;20442;-85
2023/06/14 09:43:33;;;;;;;2.30;2.10;;;24.30;90.90;;;;;;5054806;28;20534;-85
2023/06/14 09:46:01;;;;;;;2.83;2.20;;;24.30;90.80;;;;;;5054602;28;20450;-93
2023/06/14 09:48:29;;;;;;;6.23;1.97;;;24.30;90.80;;;;;;5054534;28;20454;-85
2023/06/14 09:50:59;;;;;;;1.97;1.77;;;24.30;90.90;;;;;;5054431;28;20505;-84
2023/06/14 09:53:28;;;;;;;2.67;2.10;;;24.30;90.80;;;;;;5054706;28;20447;-85
2023/06/14 09:55:58;;;;;;;3.00;2.03;;;24.30;90.80;;;;;;5054235;28;20445;-85
2023/06/14 09:58:29;;;;;;;6.37;2.00;;;24.30;90.80;;;;;;5054565;28;20827;-85
2023/06/14 10:00:56;;;;;;;6.30;3.30;;;24.30;90.90;;;;;;5054268;28;20530;-85
2023/06/14 10:03:28;;;;;;;1.70;1.60;;;24.30;90.90;;;;;;5054069;28;20505;-92
2023/06/14 10:06:00;;;;;;;5.63;1.90;;;24.30;91.10;;;;;;5054342;28;20468;-84
2023/06/14 10:08:30;;;;;;;7.03;2.50;;;24.30;91.10;;;;;;5054189;28;20446;-85
2023/06/14 10:10:57;;;;;;;3.60;2.37;;;24.30;91.10;;;;;;5054013;28;20444;-85
2023/06/14 10:13:26;;;;;;;2.73;2.00;;;24.40;91.20;;;;;;5054231;28;20445;-90
2023/06/14 10:15:59;;;;;;;5.80;2.27;;;24.30;91.20;;;;;;5053986;28;20444;-87
2023/06/14 10:18:33;;;;;;;3.27;1.90;;;24.30;91.30;;;;;;5053997;28;20439;-84
2023/06/14 10:21:11;;;;;;;2.70;2.20;;;24.30;91.00;;;;;;5053919;28;20444;-85
2023/06/14 10:23:42;;;;;;;4.47;2.03;;;24.30;91.20;;;;;;5053853;28;20444;-85
2023/06/14 10:26:09;;;;;;;4.90;2.07;;;24.30;91.30;;;;;;5053746;28;20960;-92
2023/06/14 10:28:38;;;;;;;5.73;1.60;;;24.30;91.10;;;;;;5054204;28;20806;-85
2023/06/14 10:31:07;;;;;;;6.33;2.30;;;24.40;91.40;;;;;;5053445;28;20454;-90
2023/06/14 10:33:34;;;;;;;3.90;1.93;;;24.30;91.40;;;;;;5054384;28;20849;-89
2023/06/14 10:36:30;;;;;;;2.83;1.60;;;24.30;91.40;;;;;;5053561;28;20533;-88
2023/06/14 10:39:02;;;;;;;2.00;1.80;;;24.30;91.30;;;;;;5054100;28;20432;-89
2023/06/14 10:41:29;;;;;;;2.60;1.80;;;24.30;91.60;;;;;;5053606;28;20938;-89
2023/06/14 10:44:33;;;;;;;2.27;1.90;;;24.30;91.30;;;;;;5070480;28;20447;-90
2023/06/14 10:47:01;;;;;;;4.50;2.20;;;24.40;91.40;;;;;;5073705;28;20468;-88
2023/06/14 10:49:42;;;;;;;1.93;1.60;;;24.40;91.40;;;;;;5066938;28;20447;-94
2023/06/14 10:52:16;;;;;;;3.73;2.10;;;24.40;91.50;;;;;;5053523;28;21005;-88
2023/06/14 10:55:04;;;;;;;3.67;2.13;;;24.40;91.60;;;;;;5053895;28;20431;-92
2023/06/14 10:57:32;;;;;;;4.10;1.87;;;24.40;91.60;;;;;;5053678;28;20442;-89
2023/06/14 10:59:59;;;;;;;3.67;2.50;;;24.40;91.60;;;;;;5053606;28;20536;-88
2023/06/14 11:02:50;;;;;;;4.43;1.73;;;24.40;91.50;;;;;;5053801;28;20543;-88
2023/06/14 11:05:20;;;;;;;3.40;1.90;;;24.40;91.40;;;;;;5053617;28;20499;-93
2023/06/14 11:08:05;;;;;;;1.57;1.47;;;24.40;91.50;;;;;;5053318;28;20487;-93
2023/06/14 11:10:38;;;;;;;3.13;2.30;;;24.40;91.30;;;;;;5053779;28;20528;-89
2023/06/14 11:13:05;;;;;;;4.87;2.13;;;24.40;91.70;;;;;;5054603;28;20467;-93
2023/06/14 11:15:33;;;;;;;1.97;1.60;;;24.40;91.70;;;;;;5053154;28;20448;-89
2023/06/14 11:18:02;;;;;;;2.07;1.50;;;24.40;91.70;;;;;;5054092;28;20547;-88
2023/06/14 11:20:32;;;;;;;2.60;1.60;;;24.40;91.40;;;;;;5053239;28;20450;-92
2023/06/14 11:23:00;;;;;;;2.57;2.00;;;24.40;91.60;;;;;;5053629;28;20450;-88
2023/06/14 11:25:27;;;;;;;2.10;1.70;;;24.40;91.40;;;;;;5053616;28;20451;-89
2023/06/14 11:27:55;;;;;;;3.37;2.00;;;24.40;91.40;;;;;;5053289;28;20484;-88
2023/06/14 11:30:23;;;;;;;3.93;1.80;;;24.40;91.50;;;;;;5053222;28;20446;-88
2023/06/14 11:32:51;;;;;;;3.37;1.70;;;24.40;91.50;;;;;;5053246;28;20450;-94
2023/06/14 11:35:19;;;;;;;4.57;2.50;;;24.40;91.40;;;;;;5052986;28;20475;-93
2023/06/14 11:37:47;;;;;;;1.83;1.73;;;24.40;91.40;;;;;;5054056;28;20539;-88
2023/06/14 11:40:15;;;;;;;4.10;2.20;;;24.50;91.40;;;;;;5053312;28;20844;-89
2023/06/14 11:42:42;;;;;;;1.83;1.50;;;24.40;91.40;;;;;;5055506;28;20449;-93
2023/06/14 11:45:10;;;;;;;2.07;1.70;;;24.40;91.70;;;;;;5056925;28;20443;-94
2023/06/14 11:47:39;;;;;;;2.30;1.33;;;24.40;91.40;;;;;;5056822;28;21061;-88
2023/06/14 11:50:08;;;;;;;3.33;1.80;;;24.40;91.50;;;;;;5038338;28;20455;-84
2023/06/14 11:52:35;;;;;;;4.00;1.83;;;24.40;91.40;;;;;;5036505;28;20530;-84
2023/06/14 11:55:04;;;;;;;4.23;2.10;;;24.40;91.40;;;;;;5037227;28;20806;-92
2023/06/14 11:57:36;;;;;;;2.73;1.50;;;24.40;91.70;;;;;;5036679;28;20449;-93
2023/06/14 12:00:11;;;;;;;4.30;2.30;;;24.40;91.60;;;;;;5036908;28;20781;-89
2023/06/14 12:02:40;;;;;;;2.00;1.80;;;24.40;91.60;;;;;;5037038;28;20844;-89
2023/06/14 12:05:09;;;;;;;2.40;2.20;;;24.40;91.70;;;;;;5036317;28;20459;-84
2023/06/14 12:07:39;;;;;;;1.80;1.70;;;24.40;91.50;;;;;;5036407;28;20491;-84
2023/06/14 12:10:08;;;;;;;2.07;1.90;;;24.40;91.60;;;;;;5036386;28;20449;-84
2023/06/14 12:12:39;;;;;;;2.03;1.83;;;24.40;91.50;;;;;;5036603;28;20452;-92
2023/06/14 12:15:07;;;;;;;1.90;1.80;;;24.40;91.60;;;;;;5036358;28;20436;-84
2023/06/14 12:17:35;;;;;;;3.40;2.10;;;24.40;92.10;;;;;;5036337;28;20441;-92
2023/06/14 12:20:11;;;;;;;2.30;2.10;;;24.40;91.60;;;;;;5036156;28;20439;-84
2023/06/14 12:22:37;;;;;;;1.90;1.73;;;24.40;91.50;;;;;;5036296;28;20494;-84
2023/06/14 12:25:05;;;;;;;3.33;2.00;;;24.40;91.70;;;;;;5036332;28;20431;-93
2023/06/14 12:27:33;;;;;;;2.13;1.60;;;24.40;91.70;;;;;;5036077;28;20483;-86
2023/06/14 12:30:02;;;;;;;3.73;1.67;;;24.40;91.70;;;;;;5036435;28;20455;-84
2023/06/14 12:32:29;;;;;;;3.50;1.80;;;24.40;91.90;;;;;;5036129;28;20445;-84
2023/06/14 12:34:56;;;;;;;1.93;1.80;;;24.40;92.00;;;;;;5035565;28;20476;-87
2023/06/14 12:37:23;;;;;;;3.17;1.87;;;24.60;91.80;;;;;;5035747;28;20439;-83
2023/06/14 12:39:50;;;;;;;2.60;1.73;;;24.60;91.70;;;;;;5035889;28;20440;-85
2023/06/14 12:42:18;;;;;;;1.70;1.60;;;24.40;91.90;;;;;;5035538;28;20456;-83
2023/06/14 12:44:45;;;;;;;2.90;1.60;;;24.40;91.80;;;;;;5036826;28;20535;-87
2023/06/14 12:47:13;;;;;;;1.83;1.53;;;24.40;91.80;;;;;;5035991;28;20489;-89
2023/06/14 12:49:41;;;;;;;4.73;1.73;;;24.40;91.90;;;;;;5035522;28;20927;-89
2023/06/14 12:52:09;;;;;;;2.73;2.00;;;24.40;91.90;;;;;;5039229;28;20514;-88
2023/06/14 12:54:36;;;;;;;3.00;1.93;;;24.40;92.10;;;;;;5037365;28;20932;-82
2023/06/14 12:57:04;;;;;;;2.10;1.80;;;24.50;92.40;;;;;;5035362;28;20795;-89
2023/06/14 12:59:33;;;;;;;2.00;1.80;;;24.50;92.30;;;;;;5034537;28;20475;-85
2023/06/14 13:02:11;;;;;;;6.50;2.03;;;24.40;92.40;;;;;;5033160;28;20447;-86
2023/06/14 14:38:23;;;;;;;1.57;1.47;;;24.70;86.10;;;;;;4960014;29;20443;-96